createdAt,value
2022-10-03T00:02:10.688Z,3.58
2022-10-03T00:05:00.149Z,4.05
2022-10-03T00:07:58.054Z,3.53
2022-10-03T00:10:48.222Z,4.00
2022-10-03T00:13:20.251Z,3.55
2022-10-03T00:15:50.374Z,3.38
2022-10-03T00:18:34.323Z,3.60
2022-10-03T00:21:25.429Z,3.60
2022-10-03T00:24:14.865Z,3.50
2022-10-03T00:27:18.708Z,3.65
2022-10-03T00:30:01.412Z,3.33
2022-10-03T00:32:49.018Z,3.17
2022-10-03T00:35:39.206Z,3.10
2022-10-03T00:38:36.610Z,3.17
2022-10-03T00:41:06.188Z,2.78
2022-10-03T00:43:47.281Z,3.08
2022-10-03T00:46:20.843Z,2.90
2022-10-03T00:48:47.377Z,3.22
2022-10-03T00:51:38.261Z,3.05
2022-10-03T00:54:30.318Z,3.00
2022-10-03T00:57:14.931Z,3.15
2022-10-03T01:00:01.884Z,2.80
2022-10-03T01:02:55.538Z,2.75
2022-10-03T01:05:31.619Z,3.08
2022-10-03T01:08:19.081Z,2.72
2022-10-03T01:10:58.045Z,2.40
2022-10-03T01:13:39.510Z,2.63
2022-10-03T01:16:27.487Z,2.47
2022-10-03T01:19:03.586Z,2.72
2022-10-03T01:21:47.689Z,2.63
2022-10-03T01:24:32.584Z,2.50
2022-10-03T01:27:13.579Z,2.67
2022-10-03T01:30:02.167Z,2.65
2022-10-03T01:33:02.885Z,2.55
2022-10-03T01:35:54.146Z,2.42
2022-10-03T01:38:20.716Z,2.20
2022-10-03T01:41:02.897Z,2.50
2022-10-03T01:43:42.971Z,2.05
2022-10-03T01:46:12.529Z,2.30
2022-10-03T01:49:04.976Z,2.30
2022-10-03T01:52:12.875Z,2.15
2022-10-03T01:54:43.726Z,2.40
2022-10-03T01:57:28.077Z,2.17
2022-10-03T02:02:31.475Z,2.10
2022-10-03T02:05:12.768Z,2.03
2022-10-03T02:08:03.386Z,2.03
2022-10-03T02:11:01.626Z,2.30
2022-10-03T02:13:37.285Z,2.42
2022-10-03T02:16:22.698Z,2.20
2022-10-03T02:19:06.191Z,1.60
2022-10-03T02:21:33.265Z,2.20
2022-10-03T02:24:40.882Z,2.42
2022-10-03T02:27:29.082Z,2.03
2022-10-03T02:30:15.762Z,1.65
2022-10-03T02:33:17.558Z,1.83
2022-10-03T02:36:21.445Z,1.90
2022-10-03T02:38:59.558Z,1.92
2022-10-03T02:41:39.432Z,1.83
2022-10-03T02:44:14.945Z,2.00
2022-10-03T02:47:01.234Z,1.70
2022-10-03T02:49:52.561Z,1.65
2022-10-03T02:52:26.345Z,1.90
2022-10-03T02:55:05.519Z,1.85
2022-10-03T02:57:47.194Z,1.98
2022-10-03T03:00:21.019Z,1.63
2022-10-03T03:03:08.288Z,1.90
2022-10-03T03:05:42.846Z,1.80
2022-10-03T03:08:35.614Z,1.70
2022-10-03T03:11:20.883Z,1.90
2022-10-03T03:14:09.446Z,1.67
2022-10-03T03:16:51.039Z,1.45
2022-10-03T03:19:50.790Z,1.88
2022-10-03T03:22:17.108Z,1.65
2022-10-03T03:25:09.992Z,1.85
2022-10-03T03:28:13.343Z,1.65
2022-10-03T03:31:16.365Z,1.70
2022-10-03T03:34:07.043Z,1.60
2022-10-03T03:36:50.009Z,1.60
2022-10-03T03:39:44.046Z,1.52
2022-10-03T03:42:40.206Z,1.63
2022-10-03T03:45:20.676Z,1.70
2022-10-03T03:48:06.056Z,1.63
2022-10-03T03:50:35.099Z,1.52
2022-10-03T03:53:34.892Z,1.60
2022-10-03T03:56:20.183Z,1.58
2022-10-03T03:58:56.741Z,1.25
2022-10-03T04:01:46.801Z,1.50
2022-10-03T04:04:41.123Z,1.33
2022-10-03T04:07:26.201Z,1.27
2022-10-03T04:10:06.057Z,1.35
2022-10-03T04:12:36.961Z,1.40
2022-10-03T04:15:21.559Z,1.35
2022-10-03T04:18:33.794Z,1.50
2022-10-03T04:21:23.117Z,1.30
2022-10-03T04:24:17.361Z,1.23
2022-10-03T04:26:52.920Z,1.30
2022-10-03T04:29:37.614Z,1.30
2022-10-03T04:32:41.559Z,1.30
2022-10-03T04:35:45.809Z,1.20
2022-10-03T04:39:00.600Z,1.23
2022-10-03T04:42:09.349Z,1.10
2022-10-03T04:44:55.058Z,1.20
2022-10-03T04:47:53.961Z,1.23
2022-10-03T04:50:26.027Z,1.20
2022-10-03T04:53:19.521Z,1.30
2022-10-03T04:55:54.614Z,1.25
2022-10-03T04:58:32.101Z,1.00
2022-10-03T05:01:29.774Z,1.30
2022-10-03T05:04:11.173Z,1.10
2022-10-03T05:07:14.326Z,1.30
2022-10-03T05:10:05.837Z,1.13
2022-10-03T05:12:58.330Z,1.00
2022-10-03T05:15:28.039Z,1.17
2022-10-03T05:18:02.356Z,1.35
2022-10-03T05:20:52.902Z,1.20
2022-10-03T05:23:24.829Z,1.15
2022-10-03T05:26:23.118Z,1.13
2022-10-03T05:29:05.443Z,1.05
2022-10-03T05:31:38.786Z,1.30
2022-10-03T05:34:28.045Z,1.35
2022-10-03T05:37:15.809Z,1.10
2022-10-03T05:39:45.669Z,1.23
2022-10-03T05:42:36.817Z,1.30
2022-10-03T05:45:21.463Z,1.08
2022-10-03T05:47:55.355Z,1.13
2022-10-03T05:51:04.065Z,0.90
2022-10-03T05:53:42.831Z,0.85
2022-10-03T05:56:40.899Z,1.00
2022-10-03T05:59:23.013Z,0.95
2022-10-03T06:01:59.399Z,0.90
2022-10-03T06:04:56.905Z,0.95
2022-10-03T06:07:26.413Z,1.33
2022-10-03T06:10:36.096Z,0.95
2022-10-03T06:13:40.082Z,1.05
2022-10-03T06:16:43.867Z,1.05
2022-10-03T06:19:10.220Z,1.00
2022-10-03T06:22:00.823Z,1.10
2022-10-03T06:24:32.960Z,1.20
2022-10-03T06:27:10.438Z,1.00
2022-10-03T06:30:11.685Z,1.05
2022-10-03T06:32:56.897Z,1.23
2022-10-03T06:35:32.691Z,1.00
2022-10-03T06:38:37.041Z,0.90
2022-10-03T06:41:41.201Z,1.00
2022-10-03T06:44:29.625Z,0.95
2022-10-03T06:46:55.970Z,0.90
2022-10-03T06:49:40.882Z,1.00
2022-10-03T06:52:19.807Z,0.80
2022-10-03T06:54:55.227Z,0.90
2022-10-03T06:57:54.325Z,1.05
2022-10-03T07:00:22.052Z,1.10
2022-10-03T07:03:10.215Z,1.05
2022-10-03T07:06:07.754Z,1.20
2022-10-03T07:09:00.259Z,1.48
2022-10-03T07:11:57.290Z,1.20
2022-10-03T07:14:38.953Z,1.50
2022-10-03T07:17:30.096Z,1.35
2022-10-03T07:19:56.701Z,1.30
2022-10-03T07:23:00.213Z,1.23
2022-10-03T07:25:32.730Z,1.50
2022-10-03T07:28:32.385Z,1.40
2022-10-03T07:31:21.035Z,1.40
2022-10-03T07:34:09.408Z,1.50
2022-10-03T07:37:32.407Z,1.10
2022-10-03T07:40:12.716Z,1.20
2022-10-03T07:43:16.859Z,1.38
2022-10-03T07:46:06.092Z,1.30
2022-10-03T07:49:06.643Z,1.13
2022-10-03T07:52:11.193Z,1.50
2022-10-03T07:54:49.426Z,1.27
2022-10-03T07:57:36.589Z,1.40
2022-10-03T08:00:12.016Z,1.30
2022-10-03T08:03:14.605Z,1.50
2022-10-03T08:06:05.747Z,1.30
2022-10-03T08:08:54.093Z,1.58
2022-10-03T08:11:27.651Z,1.33
2022-10-03T08:14:19.145Z,1.48
2022-10-03T08:17:01.218Z,1.63
2022-10-03T08:19:45.609Z,1.63
2022-10-03T08:25:16.838Z,1.88
2022-10-03T08:28:00.503Z,1.73
2022-10-03T08:30:45.654Z,1.88
2022-10-03T08:33:42.780Z,1.70
2022-10-03T08:36:31.023Z,2.60
2022-10-03T08:39:12.845Z,2.35
2022-10-03T08:42:18.714Z,2.38
2022-10-03T08:45:06.354Z,2.47
2022-10-03T08:48:09.075Z,2.83
2022-10-03T08:50:54.255Z,5.57
2022-10-03T08:54:00.455Z,2.80
2022-10-03T08:56:59.232Z,2.25
2022-10-03T08:59:51.495Z,2.78
2022-10-03T09:02:20.963Z,2.40
2022-10-03T09:05:01.099Z,2.22
2022-10-03T09:07:34.104Z,2.25
2022-10-03T09:10:24.853Z,2.08
2022-10-03T09:13:06.663Z,2.30
2022-10-03T09:16:14.872Z,2.03
2022-10-03T09:19:02.958Z,1.90
2022-10-03T09:21:40.778Z,1.83
2022-10-03T09:24:21.683Z,2.38
2022-10-03T09:26:54.132Z,2.30
2022-10-03T09:29:37.859Z,2.45
2022-10-03T09:32:13.304Z,1.98
2022-10-03T09:35:17.425Z,2.00
2022-10-03T09:37:52.789Z,1.60
2022-10-03T09:40:57.215Z,2.00
2022-10-03T09:43:46.329Z,1.98
2022-10-03T09:46:36.559Z,2.10
2022-10-03T09:49:33.276Z,1.80
2022-10-03T09:52:25.156Z,1.67
2022-10-03T09:55:12.642Z,2.05
2022-10-03T09:58:10.135Z,1.23
2022-10-03T10:00:45.683Z,1.23
2022-10-03T10:03:44.544Z,1.58
2022-10-03T10:06:55.630Z,1.42
2022-10-03T10:09:40.893Z,1.67
2022-10-03T10:12:13.951Z,1.42
2022-10-03T10:14:50.315Z,1.60
2022-10-03T10:17:26.346Z,1.48
2022-10-03T10:20:01.301Z,1.40
2022-10-03T10:22:49.866Z,1.60
2022-10-03T10:25:53.227Z,1.40
2022-10-03T10:28:36.474Z,1.42
2022-10-03T10:31:11.127Z,1.42
2022-10-03T10:34:02.056Z,1.42
2022-10-03T10:36:51.177Z,1.65
2022-10-03T10:40:02.656Z,1.70
2022-10-03T10:42:53.408Z,1.40
2022-10-03T10:45:56.924Z,1.27
2022-10-03T10:49:03.860Z,1.27
2022-10-03T10:51:30.416Z,1.50
2022-10-03T10:54:15.245Z,1.40
2022-10-03T10:56:44.423Z,1.50
2022-10-03T10:59:32.406Z,1.45
2022-10-03T11:02:40.590Z,1.30
2022-10-03T11:05:25.257Z,1.60
2022-10-03T11:08:13.910Z,1.10
2022-10-03T11:11:26.234Z,1.38
2022-10-03T11:13:55.566Z,1.30
2022-10-03T11:16:40.584Z,1.20
2022-10-03T11:19:32.034Z,1.48
2022-10-03T11:22:33.025Z,1.23
2022-10-03T11:25:08.595Z,1.50
2022-10-03T11:27:55.447Z,1.20
2022-10-03T11:30:43.343Z,1.30
2022-10-03T11:33:46.898Z,0.80
2022-10-03T11:36:41.649Z,1.25
2022-10-03T11:39:27.679Z,1.10
2022-10-03T11:42:33.406Z,1.27
2022-10-03T11:45:04.493Z,0.90
2022-10-03T11:47:45.230Z,1.15
2022-10-03T11:50:18.932Z,1.10
2022-10-03T11:53:01.938Z,1.20
2022-10-03T11:55:59.889Z,1.00
2022-10-03T11:58:47.478Z,1.30
2022-10-03T12:01:32.190Z,1.35
2022-10-03T12:04:32.006Z,1.48
2022-10-03T12:07:24.725Z,0.90
2022-10-03T12:10:17.355Z,1.00
2022-10-03T12:12:46.023Z,1.10
2022-10-03T12:15:31.365Z,0.95
2022-10-03T12:18:07.046Z,1.17
2022-10-03T12:20:40.120Z,0.90
2022-10-03T12:23:21.717Z,0.90
2022-10-03T12:25:49.150Z,0.95
2022-10-03T12:28:20.863Z,0.98
2022-10-03T12:30:56.908Z,1.08
2022-10-03T12:33:44.943Z,0.80
2022-10-03T12:36:16.357Z,0.88
2022-10-03T12:38:51.137Z,1.00
2022-10-03T12:41:54.730Z,1.25
2022-10-03T12:44:40.811Z,0.82
2022-10-03T12:47:32.303Z,1.05
2022-10-03T12:50:25.595Z,0.73
2022-10-03T12:53:08.500Z,1.17
2022-10-03T12:55:38.326Z,0.80
2022-10-03T12:58:33.547Z,0.90
2022-10-03T13:01:09.033Z,1.00
2022-10-03T13:03:52.091Z,0.80
2022-10-03T13:07:04.546Z,1.00
2022-10-03T13:09:38.601Z,0.80
2022-10-03T13:12:25.531Z,0.68
2022-10-03T13:15:31.845Z,0.90
2022-10-03T13:18:19.633Z,1.00
2022-10-03T13:21:45.625Z,1.00
2022-10-03T13:24:42.468Z,1.00
2022-10-03T13:27:20.362Z,1.23
2022-10-03T13:29:48.745Z,1.10
2022-10-03T13:32:31.732Z,1.10
2022-10-03T13:35:20.231Z,0.80
2022-10-03T13:38:13.265Z,1.00
2022-10-03T13:40:43.571Z,1.13
2022-10-03T13:43:13.595Z,0.88
2022-10-03T13:45:42.305Z,0.73
2022-10-03T13:48:12.185Z,1.08
2022-10-03T13:50:52.875Z,1.08
2022-10-03T13:53:35.914Z,0.98
2022-10-03T13:56:11.612Z,0.93
2022-10-03T13:58:45.565Z,0.80
2022-10-03T14:01:24.223Z,0.85
2022-10-03T14:04:28.836Z,0.90
2022-10-03T14:07:15.535Z,0.90
2022-10-03T14:09:57.820Z,0.95
2022-10-03T14:12:54.766Z,1.02
2022-10-03T14:15:39.319Z,0.60
2022-10-03T14:18:15.477Z,1.10
2022-10-03T14:21:00.970Z,0.80
2022-10-03T14:24:05.577Z,0.80
2022-10-03T14:26:41.065Z,0.77
2022-10-03T14:29:10.505Z,1.05
2022-10-03T14:31:56.263Z,0.95
2022-10-03T14:34:42.473Z,0.70
2022-10-03T14:37:24.248Z,1.00
2022-10-03T14:39:58.848Z,0.82
2022-10-03T14:42:32.351Z,1.02
2022-10-03T14:45:29.586Z,1.05
2022-10-03T14:48:20.423Z,1.10
2022-10-03T14:50:48.765Z,0.80
2022-10-03T14:53:20.446Z,1.27
2022-10-03T14:56:05.125Z,0.85
2022-10-03T14:58:44.099Z,1.02
2022-10-03T15:01:14.771Z,0.85
2022-10-03T15:04:04.273Z,1.05
2022-10-03T15:06:54.663Z,0.85
2022-10-03T15:09:40.841Z,0.77
2022-10-03T15:12:20.078Z,0.85
2022-10-03T15:14:56.406Z,0.95
2022-10-03T15:17:24.891Z,0.90
2022-10-03T15:19:55.352Z,1.00
2022-10-03T15:22:36.225Z,0.85
2022-10-03T15:25:13.859Z,0.77
2022-10-03T15:27:41.204Z,0.90
2022-10-03T15:30:08.173Z,0.77
2022-10-03T15:32:37.968Z,0.65
2022-10-03T15:35:05.118Z,0.60
2022-10-03T15:37:37.317Z,0.60
2022-10-03T15:40:12.449Z,0.80
2022-10-03T15:43:03.137Z,0.93
2022-10-03T15:45:32.195Z,0.77
2022-10-03T15:48:00.533Z,0.80
2022-10-03T15:50:30.839Z,0.95
2022-10-03T15:53:24.087Z,0.70
2022-10-03T15:55:53.107Z,0.70
2022-10-03T15:58:25.390Z,0.80
2022-10-03T16:01:08.676Z,1.00
2022-10-03T16:03:49.749Z,0.82
2022-10-03T16:06:32.324Z,0.98
2022-10-03T16:09:11.031Z,1.00
2022-10-03T16:11:55.799Z,0.50
2022-10-03T16:14:23.254Z,0.80
2022-10-03T16:16:55.673Z,0.80
2022-10-03T16:19:33.739Z,0.88
2022-10-03T16:22:19.237Z,1.02
2022-10-03T16:24:52.162Z,0.88
2022-10-03T16:27:20.990Z,1.10
2022-10-03T16:30:14.803Z,0.70
2022-10-03T16:32:55.679Z,0.87
2022-10-03T16:35:43.913Z,1.00
2022-10-03T16:38:24.415Z,0.95
2022-10-03T16:40:55.779Z,0.68
2022-10-03T16:43:22.326Z,1.35
2022-10-03T16:45:49.099Z,0.75
2022-10-03T16:48:47.805Z,0.63
2022-10-03T16:51:22.040Z,0.93
2022-10-03T16:53:50.636Z,1.13
2022-10-03T16:56:19.666Z,0.82
2022-10-03T16:58:53.939Z,0.82
2022-10-03T17:01:33.406Z,0.73
2022-10-03T17:04:16.113Z,0.70
2022-10-03T17:06:45.751Z,0.80
2022-10-03T17:09:28.346Z,1.05
2022-10-03T17:11:58.916Z,1.00
2022-10-03T17:14:28.184Z,0.90
2022-10-03T17:17:08.732Z,0.70
2022-10-03T17:20:08.145Z,0.70
2022-10-03T17:22:41.262Z,0.98
2022-10-03T17:25:35.953Z,0.70
2022-10-03T17:30:47.675Z,1.00
2022-10-03T17:33:22.550Z,0.70
2022-10-03T17:36:32.652Z,0.90
2022-10-03T17:39:03.684Z,0.82
2022-10-03T17:42:09.051Z,0.88
2022-10-03T17:44:59.583Z,0.90
2022-10-03T17:47:48.551Z,0.93
2022-10-03T17:50:20.730Z,1.30
2022-10-03T17:52:47.254Z,1.13
2022-10-03T17:55:27.420Z,0.93
2022-10-03T17:57:55.681Z,1.05
2022-10-03T18:00:24.101Z,1.45
2022-10-03T18:02:54.907Z,1.10
2022-10-03T18:05:28.213Z,1.27
2022-10-03T18:07:55.010Z,1.10
2022-10-03T18:10:27.393Z,1.27
2022-10-03T18:12:55.727Z,1.55
2022-10-03T18:15:42.361Z,1.00
2022-10-03T18:18:48.316Z,1.48
2022-10-03T18:21:32.535Z,1.33
2022-10-03T18:24:12.831Z,1.00
2022-10-03T18:26:47.788Z,1.13
2022-10-03T18:29:32.665Z,1.10
2022-10-03T18:32:09.951Z,1.05
2022-10-03T18:34:47.228Z,0.98
2022-10-03T18:37:23.777Z,0.90
2022-10-03T18:39:54.405Z,1.15
2022-10-03T18:42:23.837Z,1.33
2022-10-03T18:44:50.276Z,1.20
2022-10-03T18:47:17.341Z,1.30
2022-10-03T18:49:45.566Z,1.05
2022-10-03T18:52:19.434Z,1.50
2022-10-03T18:55:34.646Z,1.15
2022-10-03T18:58:03.133Z,1.67
2022-10-03T19:00:30.182Z,1.77
2022-10-03T19:03:08.698Z,1.35
2022-10-03T19:05:39.996Z,1.55
2022-10-03T19:08:11.251Z,1.30
2022-10-03T19:10:56.598Z,1.70
2022-10-03T19:13:38.262Z,1.75
2022-10-03T19:16:21.993Z,1.40
2022-10-03T19:19:11.030Z,1.33
2022-10-03T19:21:38.969Z,1.25
2022-10-03T19:24:13.963Z,1.45
2022-10-03T19:26:48.774Z,1.23
2022-10-03T19:29:36.361Z,1.35
2022-10-03T19:32:08.692Z,1.13
2022-10-03T19:34:37.781Z,1.15
2022-10-03T19:37:07.556Z,1.40
2022-10-03T19:39:34.038Z,1.55
2022-10-03T19:42:30.273Z,30.75
2022-10-03T19:44:57.312Z,38.38
2022-10-03T19:47:38.050Z,28.83
2022-10-03T19:50:20.963Z,22.25
2022-10-03T19:52:50.613Z,17.50
2022-10-03T19:55:27.571Z,16.52
2022-10-03T19:58:04.000Z,15.55
2022-10-03T20:00:37.510Z,15.25
2022-10-03T20:03:21.525Z,15.82
2022-10-03T20:06:00.191Z,15.48
2022-10-03T20:08:44.375Z,13.88
2022-10-03T20:11:16.086Z,12.75
2022-10-03T20:13:43.835Z,13.43
2022-10-03T20:16:20.672Z,12.60
2022-10-03T20:18:49.250Z,12.82
2022-10-03T20:21:18.540Z,12.57
2022-10-03T20:23:45.533Z,12.40
2022-10-03T20:26:22.202Z,13.05
2022-10-03T20:28:56.502Z,12.23
2022-10-03T20:31:24.060Z,12.00
2022-10-03T20:33:52.281Z,11.07
2022-10-03T20:36:26.005Z,11.45
2022-10-03T20:39:12.317Z,11.52
2022-10-03T20:41:42.030Z,11.15
2022-10-03T20:44:21.658Z,11.45
2022-10-03T20:46:49.581Z,10.90
2022-10-03T20:49:28.182Z,11.45
2022-10-03T20:51:54.511Z,10.48
2022-10-03T20:54:22.246Z,11.93
2022-10-03T20:57:15.532Z,10.63
2022-10-03T20:59:45.490Z,11.27
2022-10-03T21:02:38.192Z,10.15
2022-10-03T21:05:06.101Z,10.32
2022-10-03T21:07:35.065Z,8.95
2022-10-03T21:10:10.001Z,9.75
2022-10-03T21:12:41.208Z,10.48
2022-10-03T21:15:13.117Z,9.98
2022-10-03T21:17:41.723Z,9.02
2022-10-03T21:20:12.986Z,8.73
2022-10-03T21:22:39.452Z,9.00
2022-10-03T21:25:11.976Z,8.93
2022-10-03T21:27:38.567Z,9.25
2022-10-03T21:30:18.730Z,8.27
2022-10-03T21:33:10.903Z,8.95
2022-10-03T21:35:40.973Z,9.07
2022-10-03T21:38:30.893Z,8.25
2022-10-03T21:41:07.801Z,8.27
2022-10-03T21:43:40.146Z,8.32
2022-10-03T21:46:28.909Z,7.65
2022-10-03T21:49:32.930Z,8.48
2022-10-03T21:52:14.702Z,7.38
2022-10-03T21:55:05.521Z,7.32
2022-10-03T21:57:39.373Z,6.70
2022-10-03T22:00:14.325Z,7.35
2022-10-03T22:02:50.087Z,7.18
2022-10-03T22:05:31.246Z,7.05
2022-10-03T22:07:57.701Z,6.45
2022-10-03T22:10:28.188Z,7.22
2022-10-03T22:12:59.647Z,6.93
2022-10-03T22:15:56.766Z,6.47
2022-10-03T22:18:23.242Z,6.50
2022-10-03T22:21:18.401Z,6.65
2022-10-03T22:23:58.947Z,5.57
2022-10-03T22:26:46.325Z,6.25
2022-10-03T22:29:23.835Z,5.68
2022-10-03T22:32:20.674Z,6.03
2022-10-03T22:34:52.883Z,5.35
2022-10-03T22:37:19.370Z,5.18
2022-10-03T22:39:48.339Z,6.03
2022-10-03T22:42:14.937Z,5.57
2022-10-03T22:44:43.540Z,5.80
2022-10-03T22:47:21.573Z,5.63
2022-10-03T22:49:48.177Z,5.72
2022-10-03T22:52:21.224Z,5.00
2022-10-03T22:54:47.675Z,5.35
2022-10-03T22:57:14.129Z,5.28
2022-10-03T22:59:47.778Z,4.32
2022-10-03T23:02:14.244Z,5.50
2022-10-03T23:04:44.782Z,4.95
2022-10-03T23:07:46.469Z,5.28
2022-10-03T23:10:38.790Z,4.53
2022-10-03T23:13:28.562Z,4.43
2022-10-03T23:15:59.678Z,4.80
2022-10-03T23:18:43.754Z,4.47
2022-10-03T23:21:11.010Z,4.82
2022-10-03T23:24:04.957Z,4.75
2022-10-03T23:26:53.190Z,4.85
2022-10-03T23:29:20.195Z,4.15
2022-10-03T23:31:56.402Z,4.28
2022-10-03T23:34:37.931Z,4.13
2022-10-03T23:37:26.028Z,4.68
2022-10-03T23:39:55.355Z,4.30
2022-10-03T23:42:30.907Z,4.18
2022-10-03T23:44:57.648Z,4.18
2022-10-03T23:47:30.577Z,4.00
2022-10-03T23:49:57.033Z,3.47
2022-10-03T23:52:26.922Z,3.92
2022-10-03T23:54:54.309Z,3.88
2022-10-03T23:57:20.804Z,3.58
2022-10-03T23:59:47.259Z,3.72
